createdAt,value
2022-10-06T00:01:33.015Z,99.90
2022-10-06T00:03:59.640Z,99.90
2022-10-06T00:06:26.267Z,99.90
2022-10-06T00:08:52.945Z,99.90
2022-10-06T00:11:19.750Z,99.90
2022-10-06T00:13:46.441Z,99.90
2022-10-06T00:16:17.488Z,99.90
2022-10-06T00:18:44.608Z,99.90
2022-10-06T00:21:11.239Z,99.90
2022-10-06T00:23:37.813Z,99.90
2022-10-06T00:26:04.661Z,99.90
2022-10-06T00:28:31.914Z,99.90
2022-10-06T00:31:00.828Z,99.90
2022-10-06T00:33:27.424Z,99.90
2022-10-06T00:35:58.236Z,99.90
2022-10-06T00:38:24.858Z,99.90
2022-10-06T00:40:51.875Z,99.90
2022-10-06T00:43:37.165Z,99.90
2022-10-06T00:46:04.052Z,99.90
2022-10-06T00:48:31.349Z,99.90
2022-10-06T00:50:59.030Z,99.90
2022-10-06T00:53:30.067Z,99.90
2022-10-06T00:55:57.325Z,99.90
2022-10-06T00:58:25.200Z,99.90
2022-10-06T01:00:56.086Z,99.90
2022-10-06T01:03:31.339Z,99.90
2022-10-06T01:05:57.983Z,99.90
2022-10-06T01:08:24.908Z,99.90
2022-10-06T01:10:51.704Z,99.90
2022-10-06T01:13:18.723Z,99.90
2022-10-06T01:15:52.283Z,99.90
2022-10-06T01:18:20.806Z,99.90
2022-10-06T01:20:51.566Z,99.90
2022-10-06T01:23:19.037Z,99.90
2022-10-06T01:25:45.731Z,99.90
2022-10-06T01:28:13.545Z,99.90
2022-10-06T01:30:50.994Z,99.90
2022-10-06T01:33:17.788Z,99.90
2022-10-06T01:35:49.067Z,99.90
2022-10-06T01:38:16.544Z,99.90
2022-10-06T01:40:43.781Z,99.90
2022-10-06T01:43:10.718Z,99.90
2022-10-06T01:45:37.366Z,99.90
2022-10-06T01:48:04.131Z,99.90
2022-10-06T01:50:30.743Z,99.90
2022-10-06T01:52:57.547Z,99.90
2022-10-06T01:55:25.060Z,99.90
2022-10-06T01:57:51.677Z,99.90
2022-10-06T02:00:19.295Z,99.90
2022-10-06T02:02:45.939Z,99.90
2022-10-06T02:05:12.648Z,99.90
2022-10-06T02:07:39.269Z,99.90
2022-10-06T02:10:06.340Z,99.90
2022-10-06T02:12:32.970Z,99.90
2022-10-06T02:14:59.708Z,99.90
2022-10-06T02:17:26.303Z,99.90
2022-10-06T02:19:53.040Z,99.90
2022-10-06T02:22:19.684Z,99.90
2022-10-06T02:24:46.424Z,99.90
2022-10-06T02:27:13.015Z,99.90
2022-10-06T02:29:39.586Z,99.90
2022-10-06T02:32:06.565Z,99.90
2022-10-06T02:34:33.140Z,99.90
2022-10-06T02:36:59.732Z,99.90
2022-10-06T02:39:26.358Z,99.90
2022-10-06T02:41:53.057Z,99.90
2022-10-06T02:44:19.668Z,99.90
2022-10-06T02:46:46.332Z,99.90
2022-10-06T02:49:13.617Z,99.90
2022-10-06T02:51:40.243Z,99.90
2022-10-06T02:54:06.872Z,99.90
2022-10-06T02:56:33.503Z,99.90
2022-10-06T02:59:00.158Z,99.90
2022-10-06T03:01:28.086Z,99.90
2022-10-06T03:03:54.748Z,99.90
2022-10-06T03:06:28.955Z,99.90
2022-10-06T03:08:55.598Z,99.90
2022-10-06T03:11:29.534Z,99.90
2022-10-06T03:13:56.194Z,99.90
2022-10-06T03:16:22.828Z,99.90
2022-10-06T03:18:50.125Z,99.90
2022-10-06T03:21:17.630Z,99.90
2022-10-06T03:23:44.876Z,99.90
2022-10-06T03:26:11.980Z,99.90
2022-10-06T03:28:40.098Z,99.90
2022-10-06T03:31:07.288Z,99.90
2022-10-06T03:33:34.956Z,99.90
2022-10-06T03:36:04.575Z,99.90
2022-10-06T03:38:32.220Z,99.90
2022-10-06T03:41:06.251Z,99.90
2022-10-06T03:43:33.276Z,99.90
2022-10-06T03:46:03.244Z,99.90
2022-10-06T03:48:31.108Z,99.90
2022-10-06T03:50:58.916Z,99.90
2022-10-06T03:53:27.988Z,99.90
2022-10-06T03:56:00.742Z,99.90
2022-10-06T03:58:32.036Z,99.90
2022-10-06T04:01:08.146Z,99.90
2022-10-06T04:03:34.775Z,99.90
2022-10-06T04:06:02.262Z,99.90
2022-10-06T04:08:29.889Z,99.90
2022-10-06T04:11:04.647Z,99.90
2022-10-06T04:13:31.239Z,99.90
2022-10-06T04:15:57.893Z,99.90
2022-10-06T04:18:24.487Z,99.90
2022-10-06T04:20:51.092Z,99.90
2022-10-06T04:23:17.704Z,99.90
2022-10-06T04:25:44.283Z,99.90
2022-10-06T04:28:10.912Z,99.90
2022-10-06T04:30:37.543Z,99.90
2022-10-06T04:33:04.178Z,99.90
2022-10-06T04:35:30.762Z,99.90
2022-10-06T04:37:57.344Z,99.90
2022-10-06T04:40:23.944Z,99.90
2022-10-06T04:42:50.582Z,99.90
2022-10-06T04:45:17.233Z,99.90
2022-10-06T04:47:43.885Z,99.90
2022-10-06T04:50:10.565Z,99.90
2022-10-06T04:52:37.300Z,99.90
2022-10-06T04:55:04.136Z,99.90
2022-10-06T04:57:30.703Z,99.90
2022-10-06T05:00:29.755Z,99.90
2022-10-06T05:02:56.404Z,99.90
2022-10-06T05:05:23.184Z,99.90
2022-10-06T05:07:49.848Z,99.90
2022-10-06T05:10:17.343Z,99.90
2022-10-06T05:12:43.925Z,99.90
2022-10-06T05:15:10.698Z,99.90
2022-10-06T05:17:37.273Z,99.90
2022-10-06T05:20:04.026Z,99.90
2022-10-06T05:22:30.668Z,99.90
2022-10-06T05:24:57.251Z,99.90
2022-10-06T05:27:23.874Z,99.90
2022-10-06T05:29:50.486Z,99.90
2022-10-06T05:32:17.080Z,99.90
2022-10-06T05:34:43.671Z,99.90
2022-10-06T05:37:10.299Z,99.90
2022-10-06T05:39:36.975Z,99.90
2022-10-06T05:42:03.821Z,99.90
2022-10-06T05:44:30.392Z,99.90
2022-10-06T05:46:57.047Z,99.90
2022-10-06T05:49:24.032Z,99.90
2022-10-06T05:51:50.674Z,99.90
2022-10-06T05:54:17.255Z,99.90
2022-10-06T05:56:44.247Z,99.90
2022-10-06T05:59:11.507Z,99.90
2022-10-06T06:01:42.328Z,99.90
2022-10-06T06:04:10.140Z,99.90
2022-10-06T06:06:41.313Z,99.90
2022-10-06T06:09:18.296Z,99.90
2022-10-06T06:11:46.354Z,99.90
2022-10-06T06:14:14.104Z,99.90
2022-10-06T06:16:41.076Z,99.90
2022-10-06T06:19:08.755Z,99.90
2022-10-06T06:21:35.756Z,99.90
2022-10-06T06:24:02.973Z,99.90
2022-10-06T06:26:30.778Z,99.90
2022-10-06T06:29:02.512Z,99.90
2022-10-06T06:31:31.272Z,99.90
2022-10-06T06:33:59.502Z,99.90
2022-10-06T06:36:27.432Z,99.90
2022-10-06T06:38:58.079Z,99.90
2022-10-06T06:41:37.716Z,99.90
2022-10-06T06:44:04.917Z,99.90
2022-10-06T06:49:06.407Z,99.90
2022-10-06T06:51:40.392Z,99.90
2022-10-06T06:54:07.847Z,99.90
2022-10-06T06:56:38.635Z,99.90
2022-10-06T06:59:09.119Z,99.90
2022-10-06T07:01:36.135Z,99.90
2022-10-06T07:04:02.902Z,99.90
2022-10-06T07:06:30.151Z,99.90
2022-10-06T07:08:58.010Z,99.90
2022-10-06T07:11:26.203Z,99.90
2022-10-06T07:13:53.840Z,99.90
2022-10-06T07:16:39.677Z,99.90
2022-10-06T07:19:25.291Z,99.90
2022-10-06T07:22:11.603Z,99.90
2022-10-06T07:24:56.695Z,99.90
2022-10-06T07:27:23.703Z,99.90
2022-10-06T07:29:55.618Z,99.90
2022-10-06T07:32:23.279Z,99.90
2022-10-06T07:34:50.222Z,99.90
2022-10-06T07:37:17.482Z,99.90
2022-10-06T07:39:44.944Z,99.90
2022-10-06T07:42:15.072Z,99.90
2022-10-06T07:44:42.106Z,99.90
2022-10-06T07:47:09.143Z,99.90
2022-10-06T07:49:35.952Z,99.90
2022-10-06T07:52:02.619Z,99.90
2022-10-06T07:54:29.259Z,99.90
2022-10-06T07:56:55.833Z,99.90
2022-10-06T07:59:22.430Z,99.90
2022-10-06T08:01:51.325Z,99.90
2022-10-06T08:04:18.004Z,99.90
2022-10-06T08:06:44.684Z,99.90
2022-10-06T08:09:11.310Z,99.90
2022-10-06T08:11:37.972Z,99.90
2022-10-06T08:14:04.572Z,99.90
2022-10-06T08:16:31.338Z,99.90
2022-10-06T08:18:58.740Z,99.90
2022-10-06T08:21:27.024Z,99.90
2022-10-06T08:23:53.975Z,99.90
2022-10-06T08:26:21.184Z,99.90
2022-10-06T08:28:50.232Z,99.90
2022-10-06T08:31:18.091Z,96.90
2022-10-06T08:33:45.618Z,90.70
2022-10-06T08:36:14.319Z,79.40
2022-10-06T08:38:41.092Z,70.60
2022-10-06T08:41:19.911Z,63.80
2022-10-06T08:43:49.748Z,59.40
2022-10-06T08:46:21.009Z,52.70
2022-10-06T08:48:50.581Z,53.20
2022-10-06T08:51:44.398Z,49.60
2022-10-06T08:54:13.867Z,47.00
2022-10-06T08:56:56.799Z,44.80
2022-10-06T08:59:23.403Z,44.40
2022-10-06T09:01:51.428Z,45.40
2022-10-06T09:04:38.401Z,43.10
2022-10-06T09:07:12.972Z,41.20
2022-10-06T09:09:55.122Z,39.10
2022-10-06T09:12:29.316Z,40.40
2022-10-06T09:15:03.078Z,39.50
2022-10-06T09:17:37.639Z,38.30
2022-10-06T09:20:11.630Z,36.40
2022-10-06T09:22:38.236Z,38.00
2022-10-06T09:25:15.711Z,37.20
2022-10-06T09:27:43.468Z,36.70
2022-10-06T09:30:13.221Z,36.20
2022-10-06T09:32:44.519Z,37.40
2022-10-06T09:35:16.819Z,37.90
2022-10-06T09:37:57.099Z,38.50
2022-10-06T09:40:49.067Z,39.50
2022-10-06T09:43:19.121Z,41.80
2022-10-06T09:45:45.751Z,44.80
2022-10-06T09:48:13.568Z,47.80
2022-10-06T09:50:40.784Z,50.20
2022-10-06T09:53:12.139Z,51.00
2022-10-06T09:55:38.843Z,53.10
2022-10-06T09:58:15.843Z,55.00
2022-10-06T10:00:46.853Z,57.40
2022-10-06T10:03:13.646Z,58.70
2022-10-06T10:05:46.473Z,60.40
2022-10-06T10:08:13.043Z,61.80
2022-10-06T10:10:40.070Z,64.00
2022-10-06T10:13:26.191Z,64.60
2022-10-06T10:15:53.633Z,66.90
2022-10-06T10:18:26.830Z,67.50
2022-10-06T10:20:55.777Z,68.10
2022-10-06T10:23:41.115Z,69.00
2022-10-06T10:26:20.964Z,69.90
2022-10-06T10:29:06.108Z,70.90
2022-10-06T10:31:35.881Z,70.70
2022-10-06T10:34:12.887Z,71.80
2022-10-06T10:36:53.581Z,72.70
2022-10-06T10:39:31.766Z,73.20
2022-10-06T10:42:02.500Z,73.10
2022-10-06T10:44:37.738Z,72.80
2022-10-06T10:47:10.798Z,73.20
2022-10-06T10:49:39.625Z,69.30
2022-10-06T10:52:12.149Z,66.70
2022-10-06T10:54:38.781Z,66.30
2022-10-06T10:57:11.342Z,67.40
2022-10-06T10:59:47.062Z,68.70
2022-10-06T11:02:18.387Z,67.50
2022-10-06T11:04:49.764Z,66.00
2022-10-06T11:07:43.028Z,66.10
2022-10-06T11:10:21.088Z,63.70
2022-10-06T11:12:57.063Z,64.80
2022-10-06T11:15:26.732Z,64.70
2022-10-06T11:17:56.748Z,66.10
2022-10-06T11:20:42.692Z,68.20
2022-10-06T11:23:28.709Z,69.00
2022-10-06T11:26:09.849Z,70.40
2022-10-06T11:28:42.187Z,71.40
2022-10-06T11:31:09.125Z,71.40
2022-10-06T11:33:35.868Z,70.80
2022-10-06T11:36:03.606Z,71.50
2022-10-06T11:38:34.892Z,72.30
2022-10-06T11:41:02.697Z,71.60
2022-10-06T11:43:35.648Z,72.30
2022-10-06T11:46:26.580Z,74.20
2022-10-06T11:49:14.908Z,75.60
2022-10-06T11:51:41.476Z,76.80
2022-10-06T11:54:28.018Z,76.90
2022-10-06T11:56:54.610Z,78.20
2022-10-06T11:59:25.962Z,77.80
2022-10-06T12:01:53.531Z,78.20
2022-10-06T12:04:24.513Z,79.00
2022-10-06T12:06:52.404Z,80.00
2022-10-06T12:09:26.161Z,80.80
2022-10-06T12:11:53.896Z,81.70
2022-10-06T12:17:19.015Z,83.70
2022-10-06T12:19:49.045Z,83.90
2022-10-06T12:22:31.379Z,85.50
2022-10-06T12:25:10.524Z,85.80
2022-10-06T12:27:37.253Z,86.50
2022-10-06T12:30:22.666Z,89.80
2022-10-06T12:32:59.257Z,90.90
2022-10-06T12:35:31.345Z,91.20
2022-10-06T12:38:02.647Z,90.30
2022-10-06T12:40:38.465Z,90.30
2022-10-06T12:43:23.365Z,90.10
2022-10-06T12:45:56.514Z,91.30
2022-10-06T12:48:26.830Z,89.70
2022-10-06T12:50:58.069Z,90.00
2022-10-06T12:53:27.976Z,90.10
2022-10-06T12:55:58.301Z,90.30
2022-10-06T12:58:29.108Z,90.50
2022-10-06T13:01:04.705Z,90.90
2022-10-06T13:03:31.380Z,91.10
2022-10-06T13:06:01.069Z,91.00
2022-10-06T13:08:29.619Z,91.10
2022-10-06T13:11:15.293Z,90.70
2022-10-06T13:13:49.671Z,90.90
2022-10-06T13:16:19.446Z,91.10
2022-10-06T13:18:46.899Z,91.00
2022-10-06T13:21:17.072Z,90.60
2022-10-06T13:23:45.401Z,91.00
2022-10-06T13:26:29.454Z,91.50
2022-10-06T13:28:57.238Z,91.40
2022-10-06T13:31:31.485Z,91.80
2022-10-06T13:34:05.700Z,91.80
2022-10-06T13:36:37.205Z,92.30
2022-10-06T13:39:11.829Z,92.30
2022-10-06T13:41:43.166Z,92.00
2022-10-06T13:44:14.320Z,92.40
2022-10-06T13:47:01.730Z,92.20
2022-10-06T13:49:34.227Z,92.10
2022-10-06T13:52:03.023Z,92.80
2022-10-06T13:54:32.604Z,92.20
2022-10-06T13:56:59.255Z,92.50
2022-10-06T13:59:37.124Z,92.00
2022-10-06T14:02:22.314Z,91.90
2022-10-06T14:05:07.735Z,92.20
2022-10-06T14:07:34.415Z,91.70
2022-10-06T14:10:01.033Z,92.00
2022-10-06T14:12:27.635Z,92.40
2022-10-06T14:14:54.267Z,92.10
2022-10-06T14:17:22.560Z,92.50
2022-10-06T14:19:49.301Z,92.60
2022-10-06T14:22:37.469Z,92.80
2022-10-06T14:25:11.309Z,92.50
2022-10-06T14:27:37.953Z,92.50
2022-10-06T14:30:04.779Z,92.40
2022-10-06T14:32:31.347Z,92.40
2022-10-06T14:34:57.988Z,93.10
2022-10-06T14:37:24.592Z,93.10
2022-10-06T14:39:52.609Z,92.50
2022-10-06T14:42:22.820Z,92.80
2022-10-06T14:44:49.468Z,93.10
2022-10-06T14:47:16.579Z,93.30
2022-10-06T14:49:44.904Z,94.00
2022-10-06T14:52:12.055Z,93.70
2022-10-06T14:54:39.103Z,93.40
2022-10-06T14:57:05.791Z,93.50
2022-10-06T14:59:32.676Z,93.90
2022-10-06T15:01:59.336Z,94.30
2022-10-06T15:04:27.693Z,94.40
2022-10-06T15:07:13.183Z,94.00
2022-10-06T15:09:39.767Z,94.40
2022-10-06T15:12:06.392Z,94.30
2022-10-06T15:14:34.956Z,94.70
2022-10-06T15:17:01.590Z,94.60
2022-10-06T15:19:28.575Z,95.00
2022-10-06T15:21:55.208Z,95.30
2022-10-06T15:24:21.848Z,95.30
2022-10-06T15:27:07.373Z,95.50
2022-10-06T15:29:37.359Z,95.50
2022-10-06T15:32:06.048Z,96.30
2022-10-06T15:34:34.310Z,96.50
2022-10-06T15:37:01.813Z,96.80
2022-10-06T15:39:29.909Z,96.80
2022-10-06T15:41:56.933Z,97.30
2022-10-06T15:44:23.531Z,98.00
2022-10-06T15:46:51.505Z,98.10
2022-10-06T15:49:18.234Z,98.30
2022-10-06T15:51:48.974Z,98.40
2022-10-06T15:54:37.547Z,98.60
2022-10-06T15:57:05.646Z,99.00
2022-10-06T15:59:33.975Z,99.40
2022-10-06T16:02:07.266Z,99.70
2022-10-06T16:04:37.904Z,99.90
2022-10-06T16:07:12.896Z,99.90
2022-10-06T16:09:43.343Z,99.90
2022-10-06T16:12:11.310Z,99.90
2022-10-06T16:14:37.960Z,99.90
2022-10-06T16:17:05.943Z,99.90
2022-10-06T16:19:33.388Z,99.90
2022-10-06T16:22:00.694Z,99.90
2022-10-06T16:24:27.342Z,99.90
2022-10-06T16:26:54.303Z,99.90
2022-10-06T16:29:21.715Z,99.90
2022-10-06T16:31:48.457Z,99.90
2022-10-06T16:34:15.519Z,99.90
2022-10-06T16:36:42.488Z,99.90
2022-10-06T16:39:13.360Z,99.90
2022-10-06T16:41:39.968Z,99.90
2022-10-06T16:44:06.645Z,99.90
2022-10-06T16:46:33.511Z,99.90
2022-10-06T16:49:01.277Z,99.90
2022-10-06T16:51:32.078Z,99.90
2022-10-06T16:53:59.749Z,99.90
2022-10-06T16:56:31.370Z,99.90
2022-10-06T16:58:59.045Z,99.90
2022-10-06T17:01:27.384Z,99.90
2022-10-06T17:03:58.424Z,99.90
2022-10-06T17:06:25.374Z,99.90
2022-10-06T17:08:52.948Z,99.90
2022-10-06T17:11:25.067Z,99.90
2022-10-06T17:16:21.380Z,99.90
2022-10-06T17:18:52.518Z,99.90
2022-10-06T17:21:43.186Z,99.90
2022-10-06T17:24:05.896Z,99.90
2022-10-06T17:26:33.570Z,99.90
2022-10-06T17:29:01.332Z,99.90
2022-10-06T17:31:35.290Z,99.90
2022-10-06T17:34:02.383Z,99.90
2022-10-06T17:36:29.007Z,99.90
2022-10-06T17:39:01.613Z,99.90
2022-10-06T17:41:32.111Z,99.90
2022-10-06T17:44:01.215Z,99.90
2022-10-06T17:46:27.810Z,99.90
2022-10-06T17:48:55.029Z,99.90
2022-10-06T17:51:22.674Z,99.90
2022-10-06T17:53:50.467Z,99.90
2022-10-06T17:56:18.408Z,99.90
2022-10-06T17:58:51.014Z,99.90
2022-10-06T18:01:17.692Z,99.90
2022-10-06T18:03:44.953Z,99.90
2022-10-06T18:06:11.907Z,99.90
2022-10-06T18:08:38.968Z,99.90
2022-10-06T18:11:24.521Z,99.90
2022-10-06T18:13:51.208Z,99.90
2022-10-06T18:16:25.897Z,99.90
2022-10-06T18:18:54.323Z,99.90
2022-10-06T18:21:22.574Z,99.90
2022-10-06T18:23:49.214Z,99.90
2022-10-06T18:26:19.778Z,99.90
2022-10-06T18:28:48.663Z,99.90
2022-10-06T18:31:16.343Z,99.90
2022-10-06T18:36:30.910Z,99.90
2022-10-06T18:38:57.923Z,99.90
2022-10-06T18:41:27.242Z,99.90
2022-10-06T18:43:54.514Z,99.90
2022-10-06T18:46:40.008Z,99.90
2022-10-06T18:49:10.561Z,99.90
2022-10-06T18:51:41.959Z,99.90
2022-10-06T18:54:10.852Z,99.90
2022-10-06T18:56:38.118Z,99.90
2022-10-06T18:59:10.261Z,99.90
2022-10-06T19:01:39.627Z,99.90
2022-10-06T19:04:09.711Z,99.90
2022-10-06T19:06:37.415Z,99.90
2022-10-06T19:09:04.972Z,99.90
2022-10-06T19:11:51.346Z,99.90
2022-10-06T19:14:21.897Z,99.90
2022-10-06T19:16:51.066Z,99.90
2022-10-06T19:19:19.285Z,99.90
2022-10-06T19:21:46.942Z,99.90
2022-10-06T19:24:15.173Z,99.90
2022-10-06T19:26:45.765Z,99.90
2022-10-06T19:29:13.764Z,99.90
2022-10-06T19:31:42.720Z,99.90
2022-10-06T19:34:11.727Z,99.90
2022-10-06T19:36:39.622Z,99.90
2022-10-06T19:39:07.935Z,99.90
2022-10-06T19:41:53.526Z,99.90
2022-10-06T19:44:20.234Z,99.90
2022-10-06T19:46:46.950Z,99.90
2022-10-06T19:49:13.687Z,99.90
2022-10-06T19:51:41.272Z,99.90
2022-10-06T19:54:12.292Z,99.90
2022-10-06T19:56:41.314Z,99.90
2022-10-06T19:59:08.598Z,99.90
2022-10-06T20:01:35.257Z,99.90
2022-10-06T20:04:02.415Z,99.90
2022-10-06T20:06:30.516Z,99.90
2022-10-06T20:09:06.448Z,99.90
2022-10-06T20:11:35.240Z,99.90
2022-10-06T20:14:02.470Z,99.90
2022-10-06T20:16:30.677Z,99.90
2022-10-06T20:18:57.360Z,99.90
2022-10-06T20:21:24.806Z,99.90
2022-10-06T20:23:53.025Z,99.90
2022-10-06T20:26:21.200Z,99.90
2022-10-06T20:28:48.444Z,99.90
2022-10-06T20:31:26.281Z,99.90
2022-10-06T20:33:53.911Z,99.90
2022-10-06T20:36:20.544Z,99.90
2022-10-06T20:39:05.999Z,99.90
2022-10-06T20:41:32.639Z,99.90
2022-10-06T20:44:00.350Z,99.90
2022-10-06T20:46:31.570Z,99.90
2022-10-06T20:49:04.515Z,99.90
2022-10-06T20:51:32.342Z,99.90
2022-10-06T20:53:59.603Z,99.90
2022-10-06T20:56:26.479Z,99.90
2022-10-06T20:58:53.620Z,99.90
2022-10-06T21:01:20.629Z,99.90
2022-10-06T21:03:49.274Z,99.90
2022-10-06T21:06:16.730Z,99.90
2022-10-06T21:08:44.693Z,99.90
2022-10-06T21:11:12.764Z,99.90
2022-10-06T21:13:40.175Z,99.90
2022-10-06T21:16:07.521Z,99.90
2022-10-06T21:18:34.549Z,99.90
2022-10-06T21:21:07.796Z,99.90
2022-10-06T21:23:39.009Z,99.90
2022-10-06T21:26:09.138Z,99.90
2022-10-06T21:28:35.836Z,99.90
2022-10-06T21:31:03.214Z,99.90
2022-10-06T21:33:30.261Z,99.90
2022-10-06T21:36:00.706Z,99.90
2022-10-06T21:38:27.849Z,99.90
2022-10-06T21:40:56.873Z,99.90
2022-10-06T21:43:24.802Z,99.90
2022-10-06T21:46:05.033Z,99.90
2022-10-06T21:48:37.495Z,99.90
2022-10-06T21:51:04.299Z,99.90
2022-10-06T21:53:31.842Z,99.90
2022-10-06T21:55:58.409Z,99.90
2022-10-06T21:58:25.251Z,99.90
2022-10-06T22:00:54.823Z,99.90
2022-10-06T22:03:24.558Z,99.90
2022-10-06T22:05:51.124Z,99.90
2022-10-06T22:08:17.709Z,99.90
2022-10-06T22:10:45.209Z,99.90
2022-10-06T22:13:11.878Z,99.90
2022-10-06T22:15:38.485Z,99.90
2022-10-06T22:18:05.153Z,99.90
2022-10-06T22:20:34.273Z,99.90
2022-10-06T22:23:04.761Z,99.90
2022-10-06T22:25:31.659Z,99.90
2022-10-06T22:27:58.301Z,99.90
2022-10-06T22:30:24.925Z,99.90
2022-10-06T22:32:51.502Z,99.90
2022-10-06T22:35:18.059Z,99.90
2022-10-06T22:37:44.941Z,99.90
2022-10-06T22:40:11.729Z,99.90
2022-10-06T22:42:38.965Z,99.90
2022-10-06T22:45:05.850Z,99.90
2022-10-06T22:47:32.427Z,99.90
2022-10-06T22:49:58.997Z,99.90
2022-10-06T22:52:25.565Z,99.90
2022-10-06T22:54:52.145Z,99.90
2022-10-06T22:57:18.745Z,99.90
2022-10-06T22:59:45.353Z,99.90
2022-10-06T23:02:11.926Z,99.90
2022-10-06T23:04:38.502Z,99.90
2022-10-06T23:07:05.204Z,99.90
2022-10-06T23:09:31.795Z,99.90
2022-10-06T23:11:58.359Z,99.90
2022-10-06T23:14:24.961Z,99.90
2022-10-06T23:16:51.572Z,99.90
2022-10-06T23:19:18.233Z,99.90
2022-10-06T23:21:44.835Z,99.90
2022-10-06T23:24:11.460Z,99.90
2022-10-06T23:26:38.082Z,99.90
2022-10-06T23:29:04.749Z,99.90
2022-10-06T23:31:31.422Z,99.90
2022-10-06T23:33:58.184Z,99.90
2022-10-06T23:36:24.855Z,99.90
2022-10-06T23:38:51.474Z,99.90
2022-10-06T23:41:18.162Z,99.90
2022-10-06T23:43:44.807Z,99.90
2022-10-06T23:46:11.828Z,99.90
2022-10-06T23:48:38.523Z,99.90
2022-10-06T23:51:07.038Z,99.90
2022-10-06T23:53:34.009Z,99.90
2022-10-06T23:56:00.863Z,99.90
2022-10-06T23:58:27.539Z,99.90
